Time;durP1;ratioP1;P1;durP2;ratioP2;P2;SDS_P1;SDS_P2;PMS_P1;PMS_P2;Temp;Humidity;BMP_temperature;BMP_pressure;BME280_temperature;BME280_humidity;BME280_pressure;Samples;Min_cycle;Max_cycle;Signal;HPM_P1;HPM_P2
2024/03/07 00:00:14;;;;;;;5.50;5.00;;;5.90;99.90;;;;;;5021549;28;20404;-78
2024/03/07 00:02:57;;;;;;;5.72;5.13;;;5.90;99.90;;;;;;5027939;28;20391;-78
2024/03/07 00:05:26;;;;;;;6.10;5.60;;;5.90;99.90;;;;;;5046669;28;20544;-78
2024/03/07 00:07:52;;;;;;;7.25;5.50;;;6.00;99.90;;;;;;5032248;28;20800;-78
2024/03/07 00:10:18;;;;;;;5.70;5.20;;;5.90;99.90;;;;;;5030692;28;20395;-78
2024/03/07 00:12:44;;;;;;;5.90;5.30;;;5.90;99.90;;;;;;5033345;28;20765;-79
2024/03/07 00:15:11;;;;;;;5.60;5.10;;;6.00;99.90;;;;;;5032728;28;20391;-78
2024/03/07 00:17:38;;;;;;;6.10;5.45;;;5.90;99.90;;;;;;5032361;28;20419;-78
2024/03/07 00:20:08;;;;;;;5.47;4.97;;;6.00;99.90;;;;;;5033518;28;20749;-78
2024/03/07 00:22:34;;;;;;;5.25;4.82;;;6.00;99.90;;;;;;5034372;28;20474;-77
2024/03/07 00:24:59;;;;;;;5.60;5.10;;;5.90;99.90;;;;;;5029133;28;20486;-78
2024/03/07 00:27:26;;;;;;;5.60;5.00;;;6.00;99.90;;;;;;5032855;28;20448;-78
2024/03/07 00:29:54;;;;;;;5.18;4.68;;;5.90;99.90;;;;;;5030706;28;20445;-79
2024/03/07 00:32:23;;;;;;;5.37;4.87;;;5.80;99.90;;;;;;5015253;28;20403;-80
2024/03/07 00:34:49;;;;;;;4.90;4.50;;;5.80;99.90;;;;;;5019183;28;20398;-78
2024/03/07 00:37:18;;;;;;;5.20;4.80;;;5.80;99.90;;;;;;5034227;28;20514;-78
2024/03/07 00:39:43;;;;;;;5.82;5.32;;;5.90;99.90;;;;;;5047025;28;20443;-79
2024/03/07 00:42:09;;;;;;;5.80;5.30;;;5.90;99.90;;;;;;5027967;28;20406;-79
2024/03/07 00:44:35;;;;;;;6.30;5.20;;;5.90;99.90;;;;;;5029303;28;20438;-78
2024/03/07 00:47:02;;;;;;;6.13;5.53;;;5.90;99.90;;;;;;5034260;28;20407;-78
2024/03/07 00:49:28;;;;;;;4.82;4.43;;;5.90;99.90;;;;;;5043808;28;20508;-80
2024/03/07 00:51:54;;;;;;;4.70;4.30;;;5.80;99.90;;;;;;5031238;28;20781;-79
2024/03/07 00:54:20;;;;;;;5.03;4.63;;;5.80;99.90;;;;;;5012729;28;20451;-79
2024/03/07 00:56:48;;;;;;;4.70;4.30;;;5.80;99.90;;;;;;5013941;28;20381;-79
2024/03/07 00:59:17;;;;;;;4.88;4.47;;;5.80;99.90;;;;;;5018476;28;20390;-79
2024/03/07 01:01:43;;;;;;;5.68;4.60;;;5.80;99.90;;;;;;5032263;28;20498;-78
2024/03/07 01:04:09;;;;;;;4.35;3.95;;;5.90;99.90;;;;;;5026876;28;20841;-79
2024/03/07 01:06:36;;;;;;;4.60;4.20;;;5.80;99.90;;;;;;5014858;28;20427;-79
2024/03/07 01:09:02;;;;;;;4.50;4.10;;;5.90;99.90;;;;;;5038489;28;20395;-79
2024/03/07 01:11:28;;;;;;;4.78;4.38;;;5.90;99.90;;;;;;5038798;28;20478;-80
2024/03/07 01:13:53;;;;;;;5.22;4.20;;;5.90;99.90;;;;;;5032585;28;20461;-79
2024/03/07 01:16:19;;;;;;;4.90;4.50;;;5.80;99.90;;;;;;5031331;28;20471;-79
2024/03/07 01:18:44;;;;;;;4.30;3.90;;;5.90;99.90;;;;;;5032417;28;20399;-79
2024/03/07 01:21:10;;;;;;;4.80;4.40;;;5.80;99.90;;;;;;5031947;28;20406;-80
2024/03/07 01:23:36;;;;;;;4.40;4.00;;;5.80;99.90;;;;;;5039892;28;20777;-79
2024/03/07 01:26:02;;;;;;;4.45;4.15;;;5.80;99.90;;;;;;5034735;28;20414;-79
2024/03/07 01:28:29;;;;;;;5.03;4.53;;;5.80;99.90;;;;;;5014591;28;20392;-79
2024/03/07 01:30:56;;;;;;;4.75;4.35;;;5.80;99.90;;;;;;5030159;28;20399;-79
2024/03/07 01:33:22;;;;;;;4.82;4.43;;;5.90;99.90;;;;;;5038700;28;20395;-79
2024/03/07 01:35:48;;;;;;;4.70;4.30;;;5.80;99.90;;;;;;5031761;28;20383;-79
2024/03/07 01:38:15;;;;;;;5.20;4.80;;;5.90;99.90;;;;;;5032214;28;20729;-79
2024/03/07 01:40:41;;;;;;;4.93;4.53;;;5.80;99.90;;;;;;5021567;28;20773;-79
2024/03/07 01:43:08;;;;;;;4.63;4.22;;;5.80;99.90;;;;;;5010736;28;20404;-78
2024/03/07 01:45:34;;;;;;;4.80;4.32;;;5.70;99.90;;;;;;5016600;28;20410;-78
2024/03/07 01:48:00;;;;;;;4.45;4.05;;;5.80;99.90;;;;;;5032153;28;20406;-79
2024/03/07 01:50:25;;;;;;;5.10;4.60;;;5.80;99.90;;;;;;5030822;28;20391;-79
2024/03/07 01:52:55;;;;;;;4.40;4.00;;;5.80;99.90;;;;;;5038027;28;20392;-79
2024/03/07 01:55:22;;;;;;;4.72;4.10;;;5.70;99.90;;;;;;5029839;28;20930;-79
2024/03/07 01:57:47;;;;;;;4.93;4.53;;;5.80;99.90;;;;;;5030796;28;20382;-79
2024/03/07 02:00:13;;;;;;;4.47;4.07;;;5.90;99.90;;;;;;5030703;28;20403;-78
2024/03/07 02:02:39;;;;;;;5.30;4.80;;;5.80;99.90;;;;;;5042075;28;20398;-78
2024/03/07 02:05:05;;;;;;;5.07;4.60;;;5.80;99.90;;;;;;5024615;28;20407;-79
2024/03/07 02:07:31;;;;;;;4.80;4.40;;;5.70;99.90;;;;;;5039184;28;20413;-79
2024/03/07 02:10:04;;;;;;;4.95;4.55;;;5.80;99.90;;;;;;5044916;28;20400;-79
2024/03/07 02:12:30;;;;;;;4.70;4.30;;;5.80;99.90;;;;;;5011615;28;20389;-79
2024/03/07 02:14:57;;;;;;;7.10;4.80;;;5.80;99.90;;;;;;5015129;28;20402;-79
2024/03/07 02:17:23;;;;;;;4.80;4.40;;;5.70;99.90;;;;;;5032157;28;20402;-79
2024/03/07 02:19:49;;;;;;;4.80;4.40;;;5.70;99.90;;;;;;5034076;28;20407;-78
2024/03/07 02:22:14;;;;;;;5.10;4.70;;;5.70;99.90;;;;;;5043885;28;20596;-79
2024/03/07 02:24:40;;;;;;;4.90;4.37;;;5.70;99.90;;;;;;5036209;28;20418;-78
2024/03/07 02:27:05;;;;;;;4.97;4.47;;;5.70;99.90;;;;;;5019872;28;20482;-79
2024/03/07 02:29:31;;;;;;;4.53;4.13;;;5.60;99.90;;;;;;5039300;28;20390;-79
2024/03/07 02:31:56;;;;;;;4.57;4.18;;;5.70;99.90;;;;;;5052254;28;20785;-79
2024/03/07 02:34:22;;;;;;;4.25;3.85;;;5.70;99.90;;;;;;5051844;28;20385;-79
2024/03/07 02:36:48;;;;;;;4.40;4.00;;;5.70;99.90;;;;;;5051557;28;20381;-80
2024/03/07 02:39:13;;;;;;;4.37;3.97;;;5.70;99.90;;;;;;5051389;28;20480;-79
2024/03/07 02:41:39;;;;;;;4.73;3.93;;;5.70;99.90;;;;;;5040698;28;20440;-79
2024/03/07 02:44:04;;;;;;;4.30;3.70;;;5.80;99.90;;;;;;5031296;28;20391;-80
2024/03/07 02:46:32;;;;;;;4.70;4.20;;;5.80;99.90;;;;;;5030565;28;20778;-79
2024/03/07 02:48:57;;;;;;;4.50;4.10;;;5.70;99.90;;;;;;5022008;28;20399;-78
2024/03/07 02:51:24;;;;;;;4.50;4.10;;;5.80;99.90;;;;;;5026141;28;20403;-79
2024/03/07 02:53:49;;;;;;;4.28;3.88;;;5.70;99.90;;;;;;5024469;28;20388;-79
2024/03/07 02:56:15;;;;;;;4.10;3.80;;;5.80;99.90;;;;;;5024821;28;20403;-79
2024/03/07 02:58:41;;;;;;;4.03;3.73;;;5.70;99.90;;;;;;5034494;28;20533;-79
2024/03/07 03:01:06;;;;;;;4.87;4.40;;;5.70;99.90;;;;;;5033360;28;20398;-79
2024/03/07 03:03:32;;;;;;;4.40;4.00;;;5.70;99.90;;;;;;5026357;28;20400;-79
2024/03/07 03:05:58;;;;;;;4.40;4.00;;;5.80;99.90;;;;;;5014111;28;20904;-79
2024/03/07 03:08:24;;;;;;;3.97;3.58;;;5.80;99.90;;;;;;5015227;28;20468;-79
2024/03/07 03:10:53;;;;;;;4.50;4.10;;;5.80;99.90;;;;;;5025323;28;20391;-79
2024/03/07 03:13:18;;;;;;;4.15;3.85;;;5.80;99.90;;;;;;5034667;28;20394;-79
2024/03/07 03:15:44;;;;;;;4.10;3.70;;;;;;;;;;5033412;28;20488;-79
2024/03/07 03:18:10;;;;;;;6.60;3.88;;;5.60;99.90;;;;;;5030677;28;20476;-78
2024/03/07 03:20:39;;;;;;;4.13;3.80;;;5.60;99.90;;;;;;5015760;28;20447;-78
2024/03/07 03:23:05;;;;;;;4.20;3.80;;;5.50;99.90;;;;;;5030173;28;20403;-79
2024/03/07 03:25:34;;;;;;;3.80;3.50;;;5.60;99.90;;;;;;5025669;28;20798;-80
2024/03/07 03:28:01;;;;;;;4.20;3.80;;;5.40;99.90;;;;;;5017690;28;20405;-78
2024/03/07 03:30:26;;;;;;;3.57;3.27;;;5.40;99.90;;;;;;5029460;28;20853;-78
2024/03/07 03:32:52;;;;;;;3.90;3.50;;;5.30;99.90;;;;;;5032762;28;20399;-78
2024/03/07 03:35:18;;;;;;;3.60;3.30;;;5.20;99.90;;;;;;5033831;28;20886;-78
2024/03/07 03:37:44;;;;;;;3.70;3.30;;;5.20;99.90;;;;;;5033385;28;20419;-80
2024/03/07 03:40:10;;;;;;;4.03;3.70;;;5.20;99.90;;;;;;5033601;28;20387;-78
2024/03/07 03:42:40;;;;;;;4.30;3.50;;;5.10;99.90;;;;;;5038270;28;20411;-79
2024/03/07 03:45:07;;;;;;;3.45;3.15;;;5.10;99.90;;;;;;5018887;28;20408;-79
2024/03/07 03:47:37;;;;;;;3.53;3.13;;;5.10;99.90;;;;;;5027514;28;20919;-79
2024/03/07 03:50:04;;;;;;;3.50;3.20;;;5.00;99.90;;;;;;5029823;28;20500;-79
2024/03/07 03:52:30;;;;;;;3.40;3.10;;;5.00;99.90;;;;;;5016030;28;20468;-78
2024/03/07 03:54:56;;;;;;;3.70;3.40;;;5.00;99.90;;;;;;5025589;28;20393;-79
2024/03/07 03:57:22;;;;;;;3.00;2.80;;;5.00;99.90;;;;;;5037392;28;20401;-79
2024/03/07 03:59:48;;;;;;;2.80;2.60;;;5.00;99.90;;;;;;5015883;28;20420;-78
2024/03/07 04:02:13;;;;;;;3.37;3.07;;;4.90;99.90;;;;;;5013983;28;20393;-79
2024/03/07 04:04:40;;;;;;;2.50;2.30;;;4.90;99.90;;;;;;5018680;28;20448;-79
2024/03/07 04:07:06;;;;;;;3.10;2.80;;;4.80;99.90;;;;;;5032709;28;20409;-79
2024/03/07 04:09:31;;;;;;;2.95;2.70;;;4.70;99.90;;;;;;5055585;28;20454;-79
2024/03/07 04:12:00;;;;;;;2.97;2.67;;;4.60;99.90;;;;;;5013852;28;20425;-79
2024/03/07 04:14:26;;;;;;;2.67;2.47;;;4.60;99.90;;;;;;5030012;28;20387;-79
2024/03/07 04:16:54;;;;;;;3.30;3.00;;;4.60;99.90;;;;;;5016129;28;20828;-79
2024/03/07 04:19:20;;;;;;;3.00;2.70;;;4.60;99.90;;;;;;5021602;28;20405;-78
2024/03/07 04:21:46;;;;;;;3.33;3.03;;;4.50;99.90;;;;;;5038967;28;20414;-79
2024/03/07 04:24:12;;;;;;;3.70;3.40;;;4.50;99.90;;;;;;5047377;28;20781;-79
2024/03/07 04:26:37;;;;;;;3.50;3.20;;;4.50;99.90;;;;;;5030534;28;20415;-79
2024/03/07 04:29:03;;;;;;;3.90;3.60;;;4.40;99.90;;;;;;5031665;28;20841;-79
2024/03/07 04:31:29;;;;;;;3.50;3.20;;;4.50;99.90;;;;;;5034048;28;20398;-78
2024/03/07 04:33:54;;;;;;;4.40;4.00;;;4.40;99.90;;;;;;5040044;28;20405;-78
2024/03/07 04:36:20;;;;;;;4.15;3.75;;;4.40;99.90;;;;;;5032187;28;20449;-79
2024/03/07 04:38:45;;;;;;;4.65;3.72;;;4.40;99.90;;;;;;5034976;28;20399;-79
2024/03/07 04:41:11;;;;;;;4.67;4.20;;;4.40;99.90;;;;;;5020243;28;20407;-79
2024/03/07 04:43:37;;;;;;;3.95;3.33;;;4.50;99.90;;;;;;5032924;28;20383;-79
2024/03/07 04:46:05;;;;;;;4.88;4.00;;;4.30;99.90;;;;;;5033990;28;20410;-78
2024/03/07 04:48:30;;;;;;;3.92;3.53;;;4.30;99.90;;;;;;5033810;28;20394;-79
2024/03/07 04:50:57;;;;;;;3.83;3.53;;;4.20;99.90;;;;;;5034041;28;20391;-79
2024/03/07 04:53:22;;;;;;;4.50;3.92;;;4.20;99.90;;;;;;5033375;28;20391;-78
2024/03/07 04:55:48;;;;;;;4.90;4.40;;;4.10;99.90;;;;;;5033485;28;20402;-79
2024/03/07 04:58:13;;;;;;;4.30;3.90;;;4.20;99.90;;;;;;5047122;28;20389;-79
2024/03/07 05:00:39;;;;;;;4.72;4.22;;;4.10;99.90;;;;;;5043059;28;20457;-79
2024/03/07 05:03:04;;;;;;;4.57;3.70;;;4.10;99.90;;;;;;5029798;28;20457;-79
2024/03/07 05:05:30;;;;;;;4.90;4.40;;;4.00;99.90;;;;;;5033950;28;20390;-79
2024/03/07 05:07:55;;;;;;;5.10;4.60;;;4.00;99.90;;;;;;5033250;28;20387;-79
2024/03/07 05:10:21;;;;;;;4.60;4.20;;;4.00;99.90;;;;;;5026895;28;20388;-80
2024/03/07 05:12:47;;;;;;;4.10;3.70;;;4.00;99.90;;;;;;5032941;28;20394;-79
2024/03/07 05:15:12;;;;;;;5.43;4.63;;;3.90;99.90;;;;;;5043288;28;20445;-79
2024/03/07 05:17:39;;;;;;;4.70;4.30;;;3.90;99.90;;;;;;5032574;28;20379;-79
2024/03/07 05:20:12;;;;;;;4.40;4.00;;;3.90;99.90;;;;;;5037678;28;20774;-79
2024/03/07 05:22:44;;;;;;;4.40;4.00;;;3.90;99.90;;;;;;5032584;28;20399;-79
2024/03/07 05:25:10;;;;;;;5.10;4.60;;;3.90;99.90;;;;;;5025153;28;20401;-79
2024/03/07 05:27:36;;;;;;;5.93;5.32;;;3.90;99.90;;;;;;5020685;28;20560;-79
2024/03/07 05:30:05;;;;;;;5.78;4.97;;;3.90;99.90;;;;;;5034694;28;20394;-79
2024/03/07 05:32:34;;;;;;;5.40;4.90;;;3.80;99.90;;;;;;5028976;28;20399;-79
2024/03/07 05:34:59;;;;;;;6.03;5.43;;;3.80;99.90;;;;;;5028750;28;20391;-79
2024/03/07 05:37:25;;;;;;;6.50;5.07;;;3.70;99.90;;;;;;5029866;28;20417;-78
2024/03/07 05:39:51;;;;;;;6.20;5.10;;;3.70;99.90;;;;;;5031004;28;20410;-79
2024/03/07 05:42:16;;;;;;;6.30;4.68;;;3.70;99.90;;;;;;5020772;28;20391;-79
2024/03/07 05:44:42;;;;;;;5.68;4.80;;;3.60;99.90;;;;;;5030865;28;20452;-78
2024/03/07 05:47:08;;;;;;;5.88;5.22;;;3.60;99.90;;;;;;5032782;28;20416;-79
2024/03/07 05:49:34;;;;;;;6.87;5.40;;;3.60;99.90;;;;;;5031812;28;20853;-78
2024/03/07 05:52:00;;;;;;;5.90;4.90;;;3.60;99.90;;;;;;5031896;28;20463;-78
2024/03/07 05:54:25;;;;;;;5.65;5.05;;;3.60;99.90;;;;;;5032676;28;20383;-80
2024/03/07 05:56:51;;;;;;;7.70;6.50;;;3.60;99.90;;;;;;5030393;28;20390;-79
2024/03/07 05:59:16;;;;;;;6.73;6.03;;;3.60;99.90;;;;;;5031804;28;20395;-79
2024/03/07 06:01:42;;;;;;;7.95;6.45;;;3.70;99.90;;;;;;5030511;28;20387;-79
2024/03/07 06:04:10;;;;;;;6.90;6.00;;;3.60;99.90;;;;;;5031795;28;20383;-79
2024/03/07 06:06:36;;;;;;;8.00;6.50;;;3.60;99.90;;;;;;5025451;28;20447;-79
2024/03/07 06:09:07;;;;;;;6.82;6.13;;;3.60;99.90;;;;;;5030742;28;20397;-80
2024/03/07 06:11:36;;;;;;;6.97;5.82;;;3.60;99.90;;;;;;5030700;28;20405;-79
2024/03/07 06:14:06;;;;;;;8.35;6.57;;;3.60;99.90;;;;;;5033126;28;20391;-79
2024/03/07 06:16:35;;;;;;;6.95;6.25;;;3.60;99.90;;;;;;5032204;28;20399;-79
2024/03/07 06:19:01;;;;;;;8.90;7.78;;;3.60;99.90;;;;;;5030317;28;20407;-79
2024/03/07 06:21:27;;;;;;;7.50;6.70;;;3.60;99.90;;;;;;5031433;28;20397;-79
2024/03/07 06:23:59;;;;;;;8.48;7.32;;;3.60;99.90;;;;;;5034546;28;20399;-79
2024/03/07 06:26:59;;;;;;;7.88;7.07;;;3.60;99.90;;;;;;5036034;28;20422;-80
2024/03/07 06:29:25;;;;;;;9.37;6.50;;;3.70;99.90;;;;;;5033743;28;20933;-79
2024/03/07 06:31:53;;;;;;;8.50;6.60;;;3.60;99.90;;;;;;5040559;28;20391;-80
2024/03/07 06:34:19;;;;;;;7.63;6.35;;;3.70;99.90;;;;;;5037952;28;20398;-77
2024/03/07 06:36:45;;;;;;;10.63;7.00;;;4.20;99.90;;;;;;5035660;28;20482;-79
2024/03/07 06:39:10;;;;;;;7.80;6.10;;;4.10;99.90;;;;;;5035717;28;20393;-78
2024/03/07 06:41:36;;;;;;;9.25;7.45;;;4.10;99.90;;;;;;5034298;28;20441;-81
2024/03/07 06:44:02;;;;;;;10.40;7.20;;;4.00;99.90;;;;;;5035938;28;20436;-81
2024/03/07 06:46:28;;;;;;;7.97;7.05;;;4.20;99.90;;;;;;5033059;28;20911;-81
2024/03/07 06:48:55;;;;;;;8.20;7.30;;;4.10;99.90;;;;;;5033811;28;20399;-78
2024/03/07 06:51:22;;;;;;;9.47;7.80;;;4.10;99.90;;;;;;5033957;28;20471;-80
2024/03/07 06:53:48;;;;;;;10.32;7.80;;;4.30;99.90;;;;;;5034531;28;20784;-78
2024/03/07 06:56:14;;;;;;;8.83;7.93;;;4.50;99.90;;;;;;5034509;28;20391;-79
2024/03/07 06:58:42;;;;;;;12.60;9.10;;;4.60;99.90;;;;;;5033620;28;20469;-78
2024/03/07 07:01:10;;;;;;;10.65;8.13;;;4.60;99.90;;;;;;5032744;28;20395;-78
2024/03/07 07:03:36;;;;;;;10.82;8.07;;;4.80;99.90;;;;;;5033179;28;20778;-79
2024/03/07 07:06:02;;;;;;;9.47;8.10;;;4.70;99.90;;;;;;5033792;28;20442;-78
2024/03/07 07:08:30;;;;;;;10.17;8.47;;;4.80;99.90;;;;;;5035391;28;20421;-78
2024/03/07 07:10:56;;;;;;;11.52;9.25;;;5.00;99.90;;;;;;5046491;28;20390;-78
2024/03/07 07:13:22;;;;;;;11.50;9.23;;;5.00;99.90;;;;;;5034923;28;20537;-77
2024/03/07 07:15:48;;;;;;;11.90;9.03;;;5.00;99.90;;;;;;5034502;28;20416;-79
2024/03/07 07:18:14;;;;;;;16.50;11.57;;;5.00;99.90;;;;;;5035163;28;20389;-79
2024/03/07 07:20:39;;;;;;;18.70;13.03;;;5.10;99.90;;;;;;5019694;28;20899;-78
2024/03/07 07:23:05;;;;;;;16.47;12.57;;;5.00;99.90;;;;;;5014646;28;20389;-79
2024/03/07 07:25:31;;;;;;;18.98;13.70;;;5.10;99.90;;;;;;5031322;28;20398;-78
2024/03/07 07:27:56;;;;;;;16.67;12.20;;;5.30;99.90;;;;;;5014286;28;20434;-80
2024/03/07 07:30:23;;;;;;;16.77;12.57;;;5.20;99.90;;;;;;5015613;28;20395;-82
2024/03/07 07:32:50;;;;;;;18.40;12.57;;;5.40;99.90;;;;;;5015673;28;20420;-80
2024/03/07 07:35:16;;;;;;;20.48;13.98;;;5.30;99.90;;;;;;5021495;28;20449;-79
2024/03/07 07:37:43;;;;;;;17.73;13.80;;;5.10;99.90;;;;;;5022094;28;20400;-80
2024/03/07 07:40:14;;;;;;;20.00;13.97;;;5.20;99.90;;;;;;5045158;28;20442;-80
2024/03/07 07:42:43;;;;;;;18.15;14.02;;;5.10;99.90;;;;;;5014515;28;20416;-79
2024/03/07 07:45:12;;;;;;;21.33;15.93;;;5.30;99.90;;;;;;5050060;28;20753;-79
2024/03/07 07:47:43;;;;;;;20.40;14.77;;;5.60;99.90;;;;;;5018831;28;20770;-79
2024/03/07 07:50:13;;;;;;;19.40;14.13;;;5.70;99.90;;;;;;5049289;28;20392;-80
2024/03/07 07:52:49;;;;;;;18.90;13.60;;;5.90;99.90;;;;;;5019262;28;20408;-81
2024/03/07 07:55:17;;;;;;;17.88;13.88;;;5.80;99.90;;;;;;5018515;28;20962;-80
2024/03/07 07:57:44;;;;;;;18.30;13.38;;;5.80;99.90;;;;;;5049113;28;20393;-79
2024/03/07 08:00:11;;;;;;;16.92;12.95;;;5.80;99.90;;;;;;5015472;28;20396;-80
2024/03/07 08:02:37;;;;;;;16.95;13.30;;;5.90;99.90;;;;;;5019050;28;20385;-80
2024/03/07 08:05:05;;;;;;;19.30;13.65;;;6.00;99.90;;;;;;5018104;28;20395;-80
2024/03/07 08:07:31;;;;;;;17.50;13.48;;;5.90;99.90;;;;;;5062281;28;20493;-79
2024/03/07 08:09:56;;;;;;;13.90;12.40;;;6.00;99.90;;;;;;5040642;28;20426;-80
2024/03/07 08:12:22;;;;;;;17.00;13.10;;;5.80;99.90;;;;;;5037319;28;20834;-80
2024/03/07 08:14:48;;;;;;;18.40;13.38;;;6.10;99.90;;;;;;5033264;28;20479;-79
2024/03/07 08:17:13;;;;;;;17.05;12.57;;;6.30;99.90;;;;;;5037733;28;20482;-80
2024/03/07 08:19:39;;;;;;;17.13;13.40;;;6.30;99.90;;;;;;5036651;28;20391;-79
2024/03/07 08:22:05;;;;;;;17.52;13.27;;;6.30;99.90;;;;;;5036166;28;20422;-81
2024/03/07 08:24:32;;;;;;;17.15;13.52;;;6.60;99.90;;;;;;5033778;28;20751;-79
2024/03/07 08:26:57;;;;;;;17.13;13.75;;;6.40;99.90;;;;;;5018047;28;20400;-80
2024/03/07 08:29:24;;;;;;;16.35;13.63;;;6.60;99.90;;;;;;5020475;28;20478;-77
2024/03/07 08:31:49;;;;;;;14.20;12.40;;;6.80;99.90;;;;;;5021979;28;20385;-79
2024/03/07 08:34:15;;;;;;;17.20;12.83;;;6.80;99.90;;;;;;5020977;28;20419;-78
2024/03/07 08:36:40;;;;;;;16.97;13.90;;;6.80;99.90;;;;;;5020843;28;20399;-79
2024/03/07 08:39:10;;;;;;;16.45;13.30;;;6.60;99.90;;;;;;5019953;28;20396;-79
2024/03/07 08:41:40;;;;;;;16.43;13.47;;;6.70;99.90;;;;;;5013757;28;20814;-79
2024/03/07 08:44:06;;;;;;;16.80;13.82;;;6.70;99.90;;;;;;5013401;28;20411;-78
2024/03/07 08:46:32;;;;;;;18.00;13.48;;;6.90;99.90;;;;;;5016427;28;20409;-78
2024/03/07 08:48:58;;;;;;;15.98;12.57;;;6.90;99.90;;;;;;5015703;28;20389;-79
2024/03/07 08:51:23;;;;;;;15.93;12.73;;;7.00;99.90;;;;;;5014804;28;20460;-79
2024/03/07 08:53:50;;;;;;;16.30;13.63;;;7.40;99.90;;;;;;5015696;28;20395;-77
2024/03/07 08:56:15;;;;;;;15.15;13.55;;;7.50;99.90;;;;;;5016690;28;20835;-78
2024/03/07 08:58:43;;;;;;;18.30;14.02;;;7.40;99.90;;;;;;5015650;28;20427;-78
2024/03/07 09:01:08;;;;;;;17.13;12.70;;;7.50;99.90;;;;;;5016739;28;20415;-77
2024/03/07 09:03:34;;;;;;;15.83;13.60;;;7.60;99.90;;;;;;5016097;28;20425;-78
2024/03/07 09:05:59;;;;;;;18.57;15.07;;;7.60;99.90;;;;;;5016718;28;20455;-78
2024/03/07 09:08:26;;;;;;;18.70;14.82;;;7.50;99.90;;;;;;5019896;28;21092;-79
2024/03/07 09:10:54;;;;;;;23.48;18.10;;;7.10;99.90;;;;;;5022136;28;20388;-78
2024/03/07 09:13:21;;;;;;;25.40;18.88;;;7.20;99.90;;;;;;5021842;28;20391;-78
2024/03/07 09:15:46;;;;;;;25.77;19.02;;;6.90;99.90;;;;;;5020333;28;20480;-78
2024/03/07 09:18:12;;;;;;;24.42;18.50;;;6.70;99.90;;;;;;5021549;28;20917;-81
2024/03/07 09:20:38;;;;;;;26.75;20.05;;;6.60;99.90;;;;;;5021673;28;20396;-78
2024/03/07 09:23:03;;;;;;;26.70;19.50;;;6.70;99.90;;;;;;5037492;28;20393;-78
2024/03/07 09:25:32;;;;;;;28.35;19.73;;;7.00;99.90;;;;;;5028363;28;20422;-79
2024/03/07 09:28:00;;;;;;;25.80;19.10;;;7.10;99.90;;;;;;5035292;28;20407;-79
2024/03/07 09:30:27;;;;;;;25.73;19.07;;;6.90;99.90;;;;;;5036908;28;20398;-79
2024/03/07 09:32:54;;;;;;;23.52;18.38;;;6.70;99.90;;;;;;5037232;28;20396;-79
2024/03/07 09:35:21;;;;;;;23.55;18.38;;;6.60;99.90;;;;;;5034648;28;20383;-80
2024/03/07 09:37:47;;;;;;;25.33;18.90;;;7.00;99.90;;;;;;5042674;28;20437;-80
2024/03/07 09:40:13;;;;;;;25.00;19.37;;;7.00;99.90;;;;;;5041769;28;20399;-79
2024/03/07 09:42:47;;;;;;;26.97;20.00;;;7.00;99.90;;;;;;5040399;28;20409;-79
2024/03/07 09:45:17;;;;;;;24.60;19.25;;;7.10;99.90;;;;;;5039278;28;20937;-79
2024/03/07 09:47:47;;;;;;;23.67;19.08;;;6.80;99.90;;;;;;5039087;28;20486;-80
2024/03/07 09:50:15;;;;;;;27.17;19.70;;;6.90;99.90;;;;;;5038666;28;20383;-80
2024/03/07 09:52:42;;;;;;;24.20;19.63;;;7.30;99.90;;;;;;5038202;28;20407;-80
2024/03/07 09:55:08;;;;;;;24.83;20.00;;;7.60;99.90;;;;;;5040089;28;20387;-79
2024/03/07 09:57:35;;;;;;;27.43;20.67;;;7.60;99.90;;;;;;5041834;28;20411;-78
2024/03/07 10:00:02;;;;;;;25.38;20.58;;;7.50;99.90;;;;;;5040921;28;20395;-79
2024/03/07 10:02:31;;;;;;;28.15;20.70;;;8.00;99.90;;;;;;5042838;28;20429;-78
2024/03/07 10:04:57;;;;;;;28.58;21.40;;;7.90;99.90;;;;;;5045336;28;22109;-79
2024/03/07 10:07:23;;;;;;;28.73;21.40;;;7.80;99.90;;;;;;5039882;28;20405;-79
2024/03/07 10:09:51;;;;;;;30.90;22.00;;;7.70;99.90;;;;;;5043158;28;20395;-79
2024/03/07 10:12:18;;;;;;;29.30;22.70;;;7.60;99.90;;;;;;5043189;28;20387;-79
2024/03/07 10:14:53;;;;;;;27.85;22.00;;;7.90;99.90;;;;;;5041378;28;20390;-79
2024/03/07 10:17:19;;;;;;;27.80;21.25;;;7.80;99.90;;;;;;5043508;28;20390;-79
2024/03/07 10:19:50;;;;;;;27.63;22.42;;;8.00;99.90;;;;;;5043159;28;20374;-79
2024/03/07 10:22:17;;;;;;;28.37;22.23;;;7.80;99.90;;;;;;5041726;28;20395;-79
2024/03/07 10:24:56;;;;;;;27.58;21.40;;;7.40;99.90;;;;;;5040862;28;20481;-80
2024/03/07 10:27:27;;;;;;;27.90;21.73;;;7.90;99.90;;;;;;5042991;28;20771;-81
2024/03/07 10:29:53;;;;;;;28.30;22.38;;;7.90;99.90;;;;;;5043416;28;20871;-80
2024/03/07 10:32:22;;;;;;;31.13;22.27;;;7.80;99.90;;;;;;5039450;28;20449;-80
2024/03/07 10:34:50;;;;;;;27.70;21.33;;;7.90;99.90;;;;;;5042770;28;20413;-80
2024/03/07 10:37:17;;;;;;;32.88;23.08;;;7.90;99.90;;;;;;5038766;28;20395;-80
2024/03/07 10:39:44;;;;;;;30.00;22.05;;;7.90;99.90;;;;;;5039621;28;20782;-80
2024/03/07 10:42:16;;;;;;;25.55;20.17;;;7.90;99.90;;;;;;5037968;28;20875;-80
2024/03/07 10:44:47;;;;;;;25.85;20.25;;;7.90;99.90;;;;;;5040590;28;20459;-79
2024/03/07 10:47:18;;;;;;;27.23;20.20;;;7.90;99.90;;;;;;5037690;28;20403;-80
2024/03/07 10:50:04;;;;;;;28.83;22.40;;;7.70;99.90;;;;;;5039634;28;20441;-79
2024/03/07 10:53:02;;;;;;;34.08;26.00;;;7.70;99.90;;;;;;5041486;28;20375;-80
2024/03/07 10:55:40;;;;;;;37.75;27.70;;;7.80;99.90;;;;;;5040807;28;20395;-79
2024/03/07 10:58:13;;;;;;;38.17;27.52;;;7.40;99.90;;;;;;5043129;28;20391;-79
2024/03/07 11:00:45;;;;;;;38.30;27.60;;;7.40;99.90;;;;;;5041187;28;20446;-79
2024/03/07 11:03:11;;;;;;;36.92;26.05;;;7.50;99.90;;;;;;5042036;28;20951;-80
2024/03/07 11:05:37;;;;;;;34.30;27.30;;;7.70;99.90;;;;;;5041181;28;20392;-80
2024/03/07 11:08:11;;;;;;;35.72;26.80;;;7.70;99.90;;;;;;5040069;28;20883;-79
2024/03/07 11:10:37;;;;;;;31.38;25.02;;;8.00;99.90;;;;;;5041467;28;20384;-80
2024/03/07 11:13:04;;;;;;;33.03;24.88;;;8.30;99.90;;;;;;5040826;28;20390;-80
2024/03/07 11:15:31;;;;;;;34.13;25.23;;;8.20;99.90;;;;;;5035138;28;20391;-80
2024/03/07 11:17:59;;;;;;;33.00;25.65;;;8.00;99.90;;;;;;5041529;28;20782;-81
2024/03/07 11:20:46;;;;;;;31.23;23.75;;;8.30;99.90;;;;;;5040914;28;20387;-80
2024/03/07 11:23:28;;;;;;;33.22;25.95;;;8.30;99.90;;;;;;5038493;28;20387;-80
2024/03/07 11:26:07;;;;;;;32.75;25.60;;;8.30;99.90;;;;;;5040406;28;20407;-80
2024/03/07 11:28:37;;;;;;;29.63;23.73;;;8.40;99.90;;;;;;5041633;28;20392;-80
2024/03/07 11:31:24;;;;;;;33.33;25.23;;;8.20;99.90;;;;;;5041398;28;20387;-81
2024/03/07 11:34:18;;;;;;;31.75;25.10;;;8.30;99.90;;;;;;5041808;28;20397;-80
2024/03/07 11:36:55;;;;;;;33.55;23.92;;;8.00;99.90;;;;;;5042719;28;20387;-80
2024/03/07 11:39:43;;;;;;;31.00;23.67;;;8.00;99.90;;;;;;5042520;28;20399;-81
2024/03/07 11:42:19;;;;;;;30.23;22.70;;;8.40;99.90;;;;;;5041230;28;20398;-80
2024/03/07 11:44:46;;;;;;;29.77;22.73;;;8.60;99.90;;;;;;5041291;28;20916;-80
2024/03/07 11:47:12;;;;;;;30.30;22.75;;;8.50;99.90;;;;;;5060786;22;20468;-86
2024/03/07 11:49:38;;;;;;;26.73;20.90;;;8.30;99.90;;;;;;5042015;28;20465;-84
2024/03/07 11:52:11;;;;;;;24.02;20.13;;;8.50;99.90;;;;;;5059194;28;20408;-83
2024/03/07 11:54:45;;;;;;;27.90;21.35;;;8.80;99.90;;;;;;5039925;28;20424;-84
2024/03/07 11:57:12;;;;;;;27.83;22.58;;;9.20;99.90;;;;;;5041039;28;20389;-84
2024/03/07 11:59:45;;;;;;;27.35;22.00;;;8.80;99.90;;;;;;5040340;28;20762;-84
2024/03/07 12:02:15;;;;;;;29.10;22.45;;;8.80;99.90;;;;;;5057420;28;20389;-82
2024/03/07 12:04:44;;;;;;;29.13;22.88;;;9.00;99.90;;;;;;5057523;28;20458;-84
2024/03/07 12:07:10;;;;;;;28.33;22.90;;;9.10;99.90;;;;;;5058090;28;20405;-84
2024/03/07 12:09:39;;;;;;;27.80;23.30;;;8.90;99.90;;;;;;5039955;28;20393;-84
2024/03/07 12:12:06;;;;;;;31.55;23.73;;;9.00;99.90;;;;;;5057569;28;20439;-83
2024/03/07 12:14:33;;;;;;;30.15;22.95;;;8.80;99.90;;;;;;5039142;28;20417;-83
2024/03/07 12:17:00;;;;;;;28.95;23.10;;;8.90;99.90;;;;;;5039837;28;20417;-84
2024/03/07 12:19:26;;;;;;;28.35;21.92;;;9.10;99.90;;;;;;5063210;28;20386;-83
2024/03/07 12:21:56;;;;;;;32.50;23.00;;;8.80;99.90;;;;;;5057022;28;20461;-83
2024/03/07 12:24:22;;;;;;;30.30;22.63;;;9.10;99.90;;;;;;5039678;28;20397;-84
2024/03/07 12:26:47;;;;;;;26.73;21.53;;;9.10;99.90;;;;;;5056963;28;20463;-84
2024/03/07 12:29:13;;;;;;;27.60;21.93;;;9.10;99.90;;;;;;5039795;28;20527;-84
2024/03/07 12:31:39;;;;;;;24.85;20.75;;;9.40;99.90;;;;;;5039870;28;20489;-83
2024/03/07 12:34:05;;;;;;;23.20;19.30;;;9.30;99.90;;;;;;5039566;28;21009;-81
2024/03/07 12:36:45;;;;;;;27.50;21.83;;;9.20;99.90;;;;;;5041711;28;20429;-84
2024/03/07 12:39:46;;;;;;;25.13;20.77;;;9.40;99.90;;;;;;5061105;28;20439;-84
2024/03/07 12:42:16;;;;;;;26.25;20.67;;;9.50;99.90;;;;;;5051219;28;20395;-84
2024/03/07 12:44:42;;;;;;;27.73;20.92;;;9.60;99.90;;;;;;5078403;28;20379;-84
2024/03/07 12:47:13;;;;;;;26.03;20.50;;;9.40;99.90;;;;;;5062306;28;20440;-85
2024/03/07 12:49:38;;;;;;;27.67;21.33;;;9.60;99.90;;;;;;5039723;28;20476;-84